« Back
NWS Peachtree City, Ga » Text Product » ATL Terminal Aerodrome Forecast


Printer-friendly Version
Current Version              Previous Versions:   1  2  3  4  5  6  7  8  9  

Terminal Aerodrome Forecast

614
FTUS42 KFFC 240300 AAB
TAFATL
TAF AMD
KATL 240348Z 2404/2506 32007KT P6SM SKC
     FM240600 02004KT P6SM SKC
     FM241400 10008KT P6SM SKC
     FM241800 16010KT P6SM FEW040
     FM242100 16007KT P6SM SCT060=



USA.gov is the U.S. government's official web portal to all federal, state and local government web resources and services.